createdAt,value
2023-03-06T00:00:50.288Z,7.75
2023-03-06T00:03:19.525Z,9.10
2023-03-06T00:05:47.488Z,7.72
2023-03-06T00:08:14.919Z,8.73
2023-03-06T00:10:42.531Z,10.25
2023-03-06T00:13:13.613Z,7.22
2023-03-06T00:15:42.063Z,4.90
2023-03-06T00:18:09.678Z,6.05
2023-03-06T00:20:40.503Z,7.40
2023-03-06T00:23:08.830Z,7.07
2023-03-06T00:25:38.786Z,6.22
2023-03-06T00:28:06.765Z,6.72
2023-03-06T00:30:34.568Z,6.45
2023-03-06T00:33:01.904Z,8.45
2023-03-06T00:35:31.242Z,7.93
2023-03-06T00:37:59.878Z,6.25
2023-03-06T00:40:27.553Z,11.48
2023-03-06T00:42:54.808Z,5.97
2023-03-06T00:45:22.464Z,5.00
2023-03-06T00:47:49.774Z,4.88
2023-03-06T00:50:17.484Z,8.43
2023-03-06T00:52:44.693Z,6.78
2023-03-06T00:55:12.663Z,5.63
2023-03-06T00:57:39.958Z,7.38
2023-03-06T01:00:08.784Z,6.30
2023-03-06T01:02:36.363Z,8.32
2023-03-06T01:05:04.620Z,7.88
2023-03-06T01:07:34.170Z,8.10
2023-03-06T01:10:02.002Z,4.88
2023-03-06T01:12:29.276Z,7.40
2023-03-06T01:14:58.069Z,5.22
2023-03-06T01:17:25.559Z,9.98
2023-03-06T01:19:53.107Z,5.57
2023-03-06T01:22:20.437Z,4.57
2023-03-06T01:24:48.121Z,5.45
2023-03-06T01:27:15.529Z,7.28
2023-03-06T01:29:44.450Z,5.85
2023-03-06T01:32:11.837Z,6.53
2023-03-06T01:34:39.409Z,5.30
2023-03-06T01:37:06.675Z,4.78
2023-03-06T01:39:34.229Z,7.72
2023-03-06T01:42:01.732Z,7.00
2023-03-06T01:44:29.343Z,6.63
2023-03-06T01:46:56.677Z,4.72
2023-03-06T01:49:29.518Z,7.78
2023-03-06T01:52:23.416Z,4.10
2023-03-06T01:54:57.096Z,4.70
2023-03-06T01:57:30.113Z,7.28
2023-03-06T02:00:25.761Z,5.05
2023-03-06T02:03:06.902Z,9.43
2023-03-06T02:05:37.842Z,4.40
2023-03-06T02:08:06.794Z,7.18
2023-03-06T02:10:34.734Z,6.25
2023-03-06T02:13:02.789Z,6.35
2023-03-06T02:15:30.814Z,6.18
2023-03-06T02:18:00.489Z,5.43
2023-03-06T02:20:34.472Z,4.95
2023-03-06T02:23:24.800Z,6.45
2023-03-06T02:25:53.930Z,8.15
2023-03-06T02:28:22.934Z,5.50
2023-03-06T02:30:53.431Z,3.42
2023-03-06T02:33:24.273Z,4.38
2023-03-06T02:36:10.816Z,9.13
2023-03-06T02:38:50.180Z,2.58
2023-03-06T02:41:19.674Z,5.82
2023-03-06T02:43:49.030Z,4.35
2023-03-06T02:46:16.814Z,7.07
2023-03-06T02:48:44.338Z,6.10
2023-03-06T02:51:11.887Z,6.20
2023-03-06T02:53:39.188Z,3.88
2023-03-06T02:56:07.213Z,4.35
2023-03-06T02:58:35.798Z,6.45
2023-03-06T03:01:04.012Z,5.25
2023-03-06T03:03:31.577Z,7.45
2023-03-06T03:06:00.339Z,4.82
2023-03-06T03:08:32.874Z,6.55
2023-03-06T03:11:04.512Z,4.53
2023-03-06T03:13:38.589Z,6.05
2023-03-06T03:16:09.862Z,6.07
2023-03-06T03:18:37.277Z,8.50
2023-03-06T03:21:10.554Z,4.13
2023-03-06T03:23:38.109Z,7.18
2023-03-06T03:26:08.619Z,8.85
2023-03-06T03:28:39.099Z,9.60
2023-03-06T03:31:09.241Z,3.03
2023-03-06T03:33:36.879Z,3.13
2023-03-06T03:36:07.087Z,4.63
2023-03-06T03:38:36.994Z,6.13
2023-03-06T03:41:05.116Z,4.35
2023-03-06T03:43:32.653Z,5.88
2023-03-06T03:46:01.031Z,3.60
2023-03-06T03:48:29.197Z,4.90
2023-03-06T03:51:11.981Z,4.70
2023-03-06T03:53:44.705Z,3.38
2023-03-06T03:56:14.780Z,5.65
2023-03-06T03:58:50.738Z,4.50
2023-03-06T04:01:18.440Z,18.77
2023-03-06T04:03:45.991Z,5.75
2023-03-06T04:06:15.283Z,6.85
2023-03-06T04:08:43.238Z,8.80
2023-03-06T04:11:10.837Z,3.38
2023-03-06T04:13:38.204Z,3.95
2023-03-06T04:16:06.944Z,5.90
2023-03-06T04:18:36.014Z,7.57
2023-03-06T04:21:06.635Z,4.47
2023-03-06T04:23:34.399Z,4.60
2023-03-06T04:26:02.379Z,4.30
2023-03-06T04:28:29.837Z,4.15
2023-03-06T04:30:58.723Z,6.00
2023-03-06T04:33:26.594Z,8.40
2023-03-06T04:35:55.110Z,4.63
2023-03-06T04:38:26.869Z,3.80
2023-03-06T04:40:54.575Z,7.10
2023-03-06T04:43:21.955Z,4.97
2023-03-06T04:45:49.529Z,6.25
2023-03-06T04:48:18.626Z,6.63
2023-03-06T04:50:46.634Z,7.38
2023-03-06T04:53:14.746Z,6.53
2023-03-06T04:55:42.740Z,5.85
2023-03-06T04:58:12.516Z,6.15
2023-03-06T05:00:40.246Z,8.55
2023-03-06T05:03:08.562Z,6.90
2023-03-06T05:05:36.122Z,5.90
2023-03-06T05:08:03.641Z,9.48
2023-03-06T05:10:31.462Z,8.27
2023-03-06T05:12:58.698Z,8.98
2023-03-06T05:15:26.266Z,8.98
2023-03-06T05:17:53.631Z,7.22
2023-03-06T05:20:21.371Z,19.52
2023-03-06T05:22:48.690Z,5.65
2023-03-06T05:25:16.268Z,11.50
2023-03-06T05:27:44.035Z,8.52
2023-03-06T05:30:13.857Z,5.18
2023-03-06T05:32:41.626Z,6.72
2023-03-06T05:35:17.176Z,3.80
2023-03-06T05:37:44.560Z,10.02
2023-03-06T05:40:12.738Z,4.28
2023-03-06T05:42:40.052Z,5.95
2023-03-06T05:45:09.118Z,5.28
2023-03-06T05:47:36.542Z,8.43
2023-03-06T05:50:05.714Z,8.82
2023-03-06T05:52:32.948Z,4.15
2023-03-06T05:55:00.510Z,5.28
2023-03-06T05:57:27.773Z,3.28
2023-03-06T05:59:55.336Z,4.07
2023-03-06T06:02:22.927Z,6.07
2023-03-06T06:04:50.523Z,8.38
2023-03-06T06:07:17.996Z,6.30
2023-03-06T06:09:46.336Z,9.45
2023-03-06T06:12:14.160Z,6.43
2023-03-06T06:14:41.731Z,4.22
2023-03-06T06:17:09.128Z,11.63
2023-03-06T06:19:36.794Z,4.35
2023-03-06T06:22:04.401Z,4.63
2023-03-06T06:24:32.579Z,4.88
2023-03-06T06:27:03.335Z,4.47
2023-03-06T06:29:31.464Z,6.13
2023-03-06T06:31:59.821Z,5.82
2023-03-06T06:34:28.319Z,6.05
2023-03-06T06:36:55.668Z,3.90
2023-03-06T06:39:23.932Z,7.97
2023-03-06T06:42:09.538Z,4.93
2023-03-06T06:44:40.524Z,9.32
2023-03-06T06:47:25.108Z,5.78
2023-03-06T06:49:55.353Z,5.60
2023-03-06T06:52:24.363Z,5.75
2023-03-06T06:54:52.875Z,8.40
2023-03-06T06:57:20.172Z,6.57
2023-03-06T06:59:47.836Z,8.88
2023-03-06T07:02:16.063Z,7.22
2023-03-06T07:05:00.729Z,5.90
2023-03-06T07:07:31.097Z,7.90
2023-03-06T07:09:58.714Z,5.88
2023-03-06T07:12:26.159Z,6.55
2023-03-06T07:14:53.706Z,7.18
2023-03-06T07:17:20.927Z,5.75
2023-03-06T07:19:48.661Z,5.65
2023-03-06T07:22:16.068Z,7.55
2023-03-06T07:24:43.596Z,6.47
2023-03-06T07:27:10.859Z,6.68
2023-03-06T07:29:38.511Z,8.45
2023-03-06T07:32:06.134Z,8.40
2023-03-06T07:34:33.734Z,9.68
2023-03-06T07:37:00.961Z,6.63
2023-03-06T07:39:30.157Z,9.27
2023-03-06T07:41:58.745Z,6.03
2023-03-06T07:44:26.720Z,10.82
2023-03-06T07:46:54.164Z,6.72
2023-03-06T07:49:22.058Z,5.82
2023-03-06T07:51:49.325Z,9.50
2023-03-06T07:54:16.940Z,7.90
2023-03-06T07:56:44.205Z,7.70
2023-03-06T07:59:12.236Z,10.55
2023-03-06T08:01:40.357Z,8.57
2023-03-06T08:04:08.119Z,7.18
2023-03-06T08:06:35.466Z,7.03
2023-03-06T08:09:03.393Z,6.07
2023-03-06T08:11:31.164Z,13.45
2023-03-06T08:13:59.167Z,8.35
2023-03-06T08:16:29.103Z,8.73
2023-03-06T08:18:57.751Z,5.60
2023-03-06T08:21:27.244Z,7.72
2023-03-06T08:23:55.282Z,11.43
2023-03-06T08:26:26.343Z,6.80
2023-03-06T08:28:55.946Z,7.95
2023-03-06T08:31:31.956Z,6.78
2023-03-06T08:34:02.576Z,6.43
2023-03-06T08:36:30.625Z,4.38
2023-03-06T08:38:58.497Z,6.90
2023-03-06T08:41:26.025Z,11.50
2023-03-06T08:43:53.657Z,6.10
2023-03-06T08:46:23.889Z,6.35
2023-03-06T08:48:51.673Z,7.72
2023-03-06T08:51:20.568Z,8.10
2023-03-06T08:53:48.437Z,7.13
2023-03-06T08:56:21.150Z,5.82
2023-03-06T08:58:49.219Z,7.25
2023-03-06T09:01:23.099Z,7.97
2023-03-06T09:03:51.330Z,7.20
2023-03-06T09:06:18.560Z,6.05
2023-03-06T09:08:46.166Z,5.55
2023-03-06T09:11:15.655Z,7.68
2023-03-06T09:13:43.268Z,8.65
2023-03-06T09:16:11.717Z,5.18
2023-03-06T09:18:39.991Z,8.07
2023-03-06T09:21:08.189Z,6.70
2023-03-06T09:23:37.265Z,6.68
2023-03-06T09:26:04.708Z,4.72
2023-03-06T09:28:34.934Z,2.65
2023-03-06T09:31:05.580Z,5.68
2023-03-06T09:33:33.537Z,4.83
2023-03-06T09:36:02.478Z,6.15
2023-03-06T09:38:30.113Z,2.97
2023-03-06T09:43:43.542Z,4.13
2023-03-06T09:46:16.511Z,7.50
2023-03-06T09:49:02.872Z,5.90
2023-03-06T09:51:57.262Z,2.50
2023-03-06T09:54:37.977Z,5.07
2023-03-06T09:57:16.862Z,5.95
2023-03-06T09:59:47.635Z,9.45
2023-03-06T10:02:21.055Z,3.28
2023-03-06T10:04:54.718Z,2.45
2023-03-06T10:07:26.276Z,6.03
2023-03-06T10:10:01.910Z,2.58
2023-03-06T10:13:12.655Z,8.05
2023-03-06T10:15:44.206Z,7.07
2023-03-06T10:18:13.007Z,4.22
2023-03-06T10:21:04.724Z,2.47
2023-03-06T10:24:02.409Z,5.25
2023-03-06T10:26:40.445Z,4.55
2023-03-06T10:29:14.708Z,5.22
2023-03-06T10:31:44.892Z,4.80
2023-03-06T10:34:15.204Z,5.45
2023-03-06T10:36:42.854Z,4.22
2023-03-06T10:39:16.767Z,6.28
2023-03-06T10:41:45.423Z,2.38
2023-03-06T10:44:13.479Z,2.28
2023-03-06T10:46:43.974Z,6.18
2023-03-06T10:49:14.206Z,5.63
2023-03-06T10:51:59.782Z,2.03
2023-03-06T10:54:35.508Z,3.47
2023-03-06T10:57:29.720Z,3.17
2023-03-06T11:00:04.736Z,4.80
2023-03-06T11:02:41.171Z,5.55
2023-03-06T11:05:21.334Z,5.07
2023-03-06T11:07:59.467Z,4.53
2023-03-06T11:10:28.107Z,4.20
2023-03-06T11:13:19.274Z,3.70
2023-03-06T11:16:25.484Z,4.68
2023-03-06T11:19:07.147Z,3.28
2023-03-06T11:21:36.805Z,2.33
2023-03-06T11:24:16.362Z,2.60
2023-03-06T11:27:03.879Z,4.45
2023-03-06T11:29:38.809Z,3.92
2023-03-06T11:32:12.652Z,4.75
2023-03-06T11:35:10.844Z,3.78
2023-03-06T11:37:59.282Z,3.97
2023-03-06T11:40:52.918Z,5.28
2023-03-06T11:43:30.833Z,5.35
2023-03-06T11:46:07.440Z,4.43
2023-03-06T11:48:42.343Z,10.63
2023-03-06T11:51:50.198Z,6.88
2023-03-06T11:54:17.589Z,7.45
2023-03-06T11:57:03.887Z,38.47
2023-03-06T11:59:49.256Z,3.70
2023-03-06T12:02:33.375Z,2.92
2023-03-06T12:05:12.913Z,4.50
2023-03-06T12:08:01.826Z,3.85
2023-03-06T12:10:34.976Z,3.83
2023-03-06T12:13:26.139Z,3.55
2023-03-06T12:16:05.126Z,3.97
2023-03-06T12:18:47.688Z,4.90
2023-03-06T12:21:38.976Z,4.65
2023-03-06T12:24:28.371Z,3.72
2023-03-06T12:27:26.666Z,2.90
2023-03-06T12:30:16.057Z,3.08
2023-03-06T12:33:14.806Z,4.50
2023-03-06T12:35:54.679Z,3.17
2023-03-06T12:38:34.404Z,4.60
2023-03-06T12:41:25.695Z,6.18
2023-03-06T12:44:11.764Z,3.80
2023-03-06T12:46:45.018Z,2.40
2023-03-06T12:49:32.320Z,3.75
2023-03-06T12:52:02.277Z,4.35
2023-03-06T12:54:33.456Z,4.63
2023-03-06T12:57:01.578Z,7.45
2023-03-06T12:59:40.266Z,4.65
2023-03-06T13:02:14.238Z,7.15
2023-03-06T13:04:56.604Z,7.93
2023-03-06T13:07:57.075Z,5.15
2023-03-06T13:10:29.046Z,4.35
2023-03-06T13:12:58.294Z,5.00
2023-03-06T13:15:42.776Z,5.78
2023-03-06T13:18:22.265Z,3.60
2023-03-06T13:20:53.388Z,3.78
2023-03-06T13:23:30.182Z,2.63
2023-03-06T13:26:05.286Z,5.57
2023-03-06T13:28:47.720Z,3.22
2023-03-06T13:34:06.491Z,5.32
2023-03-06T13:36:39.711Z,2.75
2023-03-06T13:39:11.784Z,3.60
2023-03-06T13:41:44.610Z,3.30
2023-03-06T13:44:32.346Z,4.82
2023-03-06T13:47:17.142Z,9.95
2023-03-06T13:49:48.046Z,6.43
2023-03-06T13:52:29.591Z,3.60
2023-03-06T13:55:23.667Z,2.67
2023-03-06T13:58:21.963Z,5.38
2023-03-06T14:01:08.164Z,5.70
2023-03-06T14:04:14.068Z,3.35
2023-03-06T14:06:51.561Z,7.57
2023-03-06T14:09:41.019Z,3.80
2023-03-06T14:12:26.029Z,3.60
2023-03-06T14:14:58.024Z,12.43
2023-03-06T14:17:30.256Z,9.43
2023-03-06T14:20:05.710Z,4.43
2023-03-06T14:22:33.308Z,5.82
2023-03-06T14:25:07.229Z,12.45
2023-03-06T14:27:45.250Z,3.22
2023-03-06T14:30:15.949Z,3.97
2023-03-06T14:32:44.306Z,1.93
2023-03-06T14:35:32.443Z,2.55
2023-03-06T14:38:03.148Z,2.90
2023-03-06T14:40:35.181Z,4.10
2023-03-06T14:43:18.241Z,7.72
2023-03-06T14:45:54.736Z,5.35
2023-03-06T14:48:23.306Z,7.47
2023-03-06T14:50:58.125Z,6.57
2023-03-06T14:53:29.897Z,2.65
2023-03-06T14:56:01.203Z,6.65
2023-03-06T14:58:43.938Z,3.60
2023-03-06T15:01:13.367Z,3.28
2023-03-06T15:03:44.509Z,4.50
2023-03-06T15:06:27.516Z,4.75
2023-03-06T15:09:07.488Z,4.68
2023-03-06T15:12:02.598Z,6.25
2023-03-06T15:14:42.935Z,11.57
2023-03-06T15:17:23.007Z,5.05
2023-03-06T15:19:54.613Z,8.50
2023-03-06T15:22:37.938Z,6.40
2023-03-06T15:25:30.254Z,3.15
2023-03-06T15:28:26.001Z,6.70
2023-03-06T15:31:17.643Z,6.60
2023-03-06T15:33:59.692Z,5.43
2023-03-06T15:36:29.814Z,7.60
2023-03-06T15:38:58.422Z,5.43
2023-03-06T15:41:34.101Z,3.35
2023-03-06T15:44:03.898Z,3.78
2023-03-06T15:46:31.575Z,4.63
2023-03-06T15:49:04.319Z,6.00
2023-03-06T15:51:32.594Z,6.45
2023-03-06T15:54:11.302Z,3.22
2023-03-06T15:56:43.334Z,5.05
2023-03-06T15:59:26.495Z,5.85
2023-03-06T16:01:54.592Z,4.82
2023-03-06T16:04:21.952Z,12.07
2023-03-06T16:06:49.574Z,10.60
2023-03-06T16:09:16.894Z,14.02
2023-03-06T16:11:45.148Z,14.57
2023-03-06T16:14:21.490Z,20.90
2023-03-06T16:16:50.231Z,29.98
2023-03-06T16:19:27.848Z,27.50
2023-03-06T16:21:56.798Z,23.67
2023-03-06T16:24:26.259Z,24.27
2023-03-06T16:26:55.040Z,32.30
2023-03-06T16:29:26.587Z,22.20
2023-03-06T16:31:56.527Z,26.10
2023-03-06T16:34:24.726Z,22.65
2023-03-06T16:36:52.476Z,14.23
2023-03-06T16:39:36.378Z,19.23
2023-03-06T16:42:14.451Z,15.85
2023-03-06T16:44:47.246Z,17.52
2023-03-06T16:47:14.756Z,13.15
2023-03-06T16:49:42.383Z,8.70
2023-03-06T16:52:11.564Z,17.63
2023-03-06T16:54:38.942Z,8.98
2023-03-06T16:57:06.559Z,6.82
2023-03-06T16:59:33.837Z,12.48
2023-03-06T17:02:01.378Z,7.43
2023-03-06T17:04:28.652Z,11.88
2023-03-06T17:06:56.184Z,11.73
2023-03-06T17:09:23.546Z,9.93
2023-03-06T17:11:51.084Z,12.55
2023-03-06T17:14:18.392Z,10.10
2023-03-06T17:16:46.520Z,10.68
2023-03-06T17:19:15.330Z,10.02
2023-03-06T17:21:43.924Z,17.55
2023-03-06T17:24:11.219Z,10.27
2023-03-06T17:26:39.186Z,8.77
2023-03-06T17:29:07.182Z,15.98
2023-03-06T17:31:35.902Z,12.80
2023-03-06T17:34:03.742Z,12.98
2023-03-06T17:36:32.087Z,9.32
2023-03-06T17:39:02.130Z,3.90
2023-03-06T17:41:30.034Z,7.45
2023-03-06T17:43:58.477Z,6.63
2023-03-06T17:46:26.296Z,3.55
2023-03-06T17:48:54.346Z,3.67
2023-03-06T17:51:21.898Z,6.18
2023-03-06T17:53:49.576Z,2.85
2023-03-06T17:56:17.215Z,5.78
2023-03-06T17:58:44.813Z,4.63
2023-03-06T18:01:24.012Z,5.75
2023-03-06T18:03:51.712Z,5.43
2023-03-06T18:06:20.800Z,7.22
2023-03-06T18:08:51.551Z,4.53
2023-03-06T18:11:20.603Z,7.95
2023-03-06T18:13:48.811Z,3.58
2023-03-06T18:16:19.312Z,5.50
2023-03-06T18:18:47.282Z,7.18
2023-03-06T18:21:16.816Z,4.18
2023-03-06T18:23:44.395Z,5.05
2023-03-06T18:26:24.213Z,7.35
2023-03-06T18:28:57.010Z,9.32
2023-03-06T18:31:33.753Z,5.65
2023-03-06T18:34:04.696Z,4.45
2023-03-06T18:36:33.503Z,3.45
2023-03-06T18:39:03.874Z,7.35
2023-03-06T18:41:32.396Z,5.43
2023-03-06T18:44:01.465Z,4.13
2023-03-06T18:46:34.881Z,4.53
2023-03-06T18:49:02.581Z,5.65
2023-03-06T18:51:30.865Z,6.20
2023-03-06T18:54:02.438Z,9.48
2023-03-06T18:56:35.700Z,8.75
2023-03-06T18:59:06.972Z,8.80
2023-03-06T19:01:35.075Z,10.00
2023-03-06T19:04:03.614Z,10.70
2023-03-06T19:06:31.409Z,10.27
2023-03-06T19:08:58.938Z,7.70
2023-03-06T19:11:26.939Z,8.77
2023-03-06T19:13:54.622Z,9.18
2023-03-06T19:16:24.580Z,9.75
2023-03-06T19:18:52.159Z,8.45
2023-03-06T19:21:22.294Z,8.05
2023-03-06T19:23:49.658Z,10.50
2023-03-06T19:26:21.033Z,8.27
2023-03-06T19:28:48.954Z,8.37
2023-03-06T19:31:20.331Z,10.40
2023-03-06T19:33:49.436Z,7.85
2023-03-06T19:36:19.615Z,7.55
2023-03-06T19:38:52.625Z,10.40
2023-03-06T19:41:20.198Z,11.02
2023-03-06T19:43:52.252Z,9.82
2023-03-06T19:46:21.347Z,9.10
2023-03-06T19:48:54.782Z,8.02
2023-03-06T19:51:22.300Z,5.50
2023-03-06T19:53:49.570Z,9.55
2023-03-06T19:56:20.954Z,10.82
2023-03-06T19:58:48.477Z,10.23
2023-03-06T20:01:21.214Z,11.05
2023-03-06T20:03:50.679Z,11.75
2023-03-06T20:06:19.865Z,13.05
2023-03-06T20:08:47.595Z,7.40
2023-03-06T20:11:23.560Z,6.22
2023-03-06T20:13:51.076Z,9.30
2023-03-06T20:16:19.867Z,7.50
2023-03-06T20:18:47.237Z,6.05
2023-03-06T20:21:15.701Z,9.57
2023-03-06T20:23:43.344Z,9.13
2023-03-06T20:26:12.964Z,8.07
2023-03-06T20:28:41.882Z,9.05
2023-03-06T20:31:13.504Z,9.10
2023-03-06T20:33:40.810Z,10.88
2023-03-06T20:36:21.759Z,11.20
2023-03-06T20:38:49.469Z,11.98
2023-03-06T20:41:22.798Z,11.13
2023-03-06T20:43:50.840Z,14.70
2023-03-06T20:46:20.294Z,19.63
2023-03-06T20:48:49.982Z,21.63
2023-03-06T20:51:36.265Z,19.75
2023-03-06T20:54:03.969Z,30.67
2023-03-06T20:56:33.443Z,27.60
2023-03-06T20:59:01.249Z,30.30
2023-03-06T21:01:35.386Z,36.13
2023-03-06T21:04:06.960Z,29.55
2023-03-06T21:06:34.883Z,36.67
2023-03-06T21:09:02.915Z,33.97
2023-03-06T21:11:30.576Z,36.33
2023-03-06T21:13:58.236Z,30.75
2023-03-06T21:16:27.477Z,32.78
2023-03-06T21:18:55.488Z,34.60
2023-03-06T21:21:25.301Z,28.88
2023-03-06T21:23:52.791Z,30.73
2023-03-06T21:26:22.902Z,35.97
2023-03-06T21:28:50.531Z,34.15
2023-03-06T21:31:20.699Z,37.85
2023-03-06T21:33:49.584Z,36.42
2023-03-06T21:36:18.826Z,35.33
2023-03-06T21:38:47.831Z,35.00
2023-03-06T21:41:18.322Z,36.70
2023-03-06T21:43:45.671Z,39.80
2023-03-06T21:46:13.625Z,30.83
2023-03-06T21:48:41.505Z,29.90
2023-03-06T21:51:12.332Z,32.15
2023-03-06T21:53:42.510Z,35.72
2023-03-06T21:56:10.985Z,27.55
2023-03-06T21:58:38.307Z,25.40
2023-03-06T22:01:22.182Z,32.80
2023-03-06T22:03:49.964Z,21.98
2023-03-06T22:06:20.316Z,23.23
2023-03-06T22:08:47.672Z,22.67
2023-03-06T22:11:20.094Z,21.65
2023-03-06T22:13:50.572Z,20.40
2023-03-06T22:16:18.552Z,20.92
2023-03-06T22:18:47.662Z,23.05
2023-03-06T22:21:17.387Z,19.33
2023-03-06T22:23:48.337Z,22.00
2023-03-06T22:26:16.042Z,19.85
2023-03-06T22:28:43.335Z,20.67
2023-03-06T22:31:19.786Z,22.15
2023-03-06T22:33:50.065Z,19.00
2023-03-06T22:36:18.267Z,21.67
2023-03-06T22:38:46.611Z,14.15
2023-03-06T22:41:16.670Z,13.40
2023-03-06T22:43:44.321Z,23.52
2023-03-06T22:46:14.354Z,17.50
2023-03-06T22:48:41.970Z,18.08
2023-03-06T22:51:12.077Z,14.45
2023-03-06T22:53:39.946Z,18.17
2023-03-06T22:56:10.888Z,16.40
2023-03-06T22:58:39.113Z,17.30
2023-03-06T23:01:12.490Z,13.82
2023-03-06T23:03:42.652Z,11.77
2023-03-06T23:06:21.924Z,17.80
2023-03-06T23:08:52.198Z,17.48
2023-03-06T23:11:21.283Z,17.85
2023-03-06T23:14:07.229Z,13.98
2023-03-06T23:16:53.520Z,14.65
2023-03-06T23:19:39.580Z,14.68
2023-03-06T23:22:26.456Z,11.18
2023-03-06T23:25:12.692Z,14.85
2023-03-06T23:27:41.160Z,12.57
2023-03-06T23:30:09.510Z,16.27
2023-03-06T23:32:37.169Z,15.15
2023-03-06T23:35:04.764Z,15.65
2023-03-06T23:37:32.304Z,15.93
2023-03-06T23:39:59.741Z,15.15
2023-03-06T23:42:27.350Z,18.85
2023-03-06T23:44:54.597Z,18.23
2023-03-06T23:47:22.164Z,17.55
2023-03-06T23:49:49.453Z,15.90
2023-03-06T23:52:17.040Z,18.75
2023-03-06T23:54:44.479Z,15.07
2023-03-06T23:57:12.003Z,17.52
2023-03-06T23:59:39.211Z,15.02
